Time;durP1;ratioP1;P1;durP2;ratioP2;P2;SDS_P1;SDS_P2;PMS_P1;PMS_P2;Temp;Humidity;BMP_temperature;BMP_pressure;BME280_temperature;BME280_humidity;BME280_pressure;Samples;Min_cycle;Max_cycle;Signal;HPM_P1;HPM_P2
2022/01/07 07:17:32;;;;;;;85.40;39.70;;;1.10;99.90;;;;;;5069113;28;20557;-47
2022/01/07 07:19:58;;;;;;;76.67;35.40;;;1.00;99.90;;;;;;5070437;28;20032;-49
2022/01/07 07:22:24;;;;;;;112.73;47.83;;;1.20;99.90;;;;;;5070828;28;20021;-54
2022/01/07 07:24:49;;;;;;;85.75;40.97;;;1.40;99.90;;;;;;5070276;28;20047;-56
2022/01/07 07:27:15;;;;;;;91.97;45.13;;;1.70;99.90;;;;;;5070574;28;20036;-55
2022/01/07 07:29:41;;;;;;;77.63;37.33;;;1.90;99.90;;;;;;5069896;28;20036;-48
2022/01/07 07:32:09;;;;;;;68.47;36.13;;;2.20;99.90;;;;;;5070341;28;20021;-54
2022/01/07 07:37:30;;;;;;;63.70;31.98;;;2.70;99.90;;;;;;5045254;28;20041;-53
2022/01/07 07:39:56;;;;;;;55.20;28.88;;;2.80;99.90;;;;;;5045096;28;20482;-51
2022/01/07 07:42:22;;;;;;;50.75;28.30;;;2.90;99.90;;;;;;5043379;28;20510;-53
2022/01/07 07:44:47;;;;;;;48.38;27.00;;;3.10;99.90;;;;;;5044007;28;20021;-54
2022/01/07 07:47:13;;;;;;;55.45;32.17;;;3.30;99.90;;;;;;5045682;28;20029;-55
2022/01/07 07:49:39;;;;;;;44.40;24.50;;;3.50;99.90;;;;;;5049867;28;20025;-54
2022/01/07 07:52:05;;;;;;;42.45;22.70;;;3.80;98.40;;;;;;5060150;28;20478;-53
2022/01/07 07:54:31;;;;;;;43.65;24.67;;;3.80;95.50;;;;;;5055752;28;20027;-48
2022/01/07 07:57:00;;;;;;;36.80;21.95;;;3.60;95.70;;;;;;5058209;28;20037;-54
2022/01/07 07:59:26;;;;;;;53.83;34.10;;;3.60;98.50;;;;;;5060419;28;20025;-48
2022/01/07 08:01:52;;;;;;;49.65;27.15;;;3.60;97.30;;;;;;5055430;28;20029;-47
2022/01/07 08:04:20;;;;;;;61.30;34.45;;;3.50;99.60;;;;;;5059501;28;20486;-56
2022/01/07 08:06:45;;;;;;;110.47;51.85;;;3.60;98.00;;;;;;5054759;28;20029;-53
2022/01/07 08:09:12;;;;;;;71.28;36.85;;;3.80;96.00;;;;;;5051342;28;20022;-53
2022/01/07 08:11:49;;;;;;;69.57;36.78;;;3.90;97.40;;;;;;5055568;28;20059;-56
2022/01/07 08:17:00;;;;;;;91.20;45.25;;;5.10;87.60;;;;;;5065777;28;20043;-52
2022/01/07 08:19:26;;;;;;;124.95;58.15;;;5.00;90.20;;;;;;5069455;28;20021;-60
2022/01/07 08:21:52;;;;;;;98.00;48.38;;;5.00;87.10;;;;;;5068589;28;20017;-60
2022/01/07 08:24:18;;;;;;;88.15;44.60;;;5.00;86.90;;;;;;5069226;28;20467;-61
2022/01/07 08:26:44;;;;;;;89.90;46.28;;;5.10;85.60;;;;;;5068027;28;20024;-59
2022/01/07 08:29:12;;;;;;;117.97;55.60;;;5.40;80.20;;;;;;5054779;28;20029;-60
2022/01/07 08:36:51;;;;;;;74.45;39.28;;;6.50;70.30;;;;;;5049012;28;20094;-52
2022/01/07 08:39:21;;;;;;;63.35;33.13;;;6.20;71.20;;;;;;5053105;28;20025;-53
2022/01/07 08:41:47;;;;;;;62.35;31.10;;;6.10;71.50;;;;;;5036097;28;20032;-50
2022/01/07 08:44:13;;;;;;;67.30;30.80;;;6.60;69.50;;;;;;5036767;28;20030;-55
2022/01/07 08:46:39;;;;;;;64.95;33.45;;;6.50;68.20;;;;;;5039163;28;20467;-59
2022/01/07 08:49:05;;;;;;;59.08;31.50;;;6.10;67.90;;;;;;5055920;28;20032;-60
2022/01/07 08:51:32;;;;;;;59.45;29.52;;;6.10;68.30;;;;;;5041257;28;20030;-52
2022/01/07 08:53:58;;;;;;;59.58;30.85;;;6.30;66.70;;;;;;5034885;28;20056;-59
2022/01/07 08:56:24;;;;;;;52.53;27.40;;;6.00;67.50;;;;;;5041516;28;20394;-46
2022/01/07 08:58:55;;;;;;;50.80;25.83;;;6.10;69.20;;;;;;5039309;28;20056;-58
2022/01/07 09:01:23;;;;;;;58.28;30.08;;;6.00;68.20;;;;;;5032942;28;20328;-50
2022/01/07 09:03:48;;;;;;;66.65;32.30;;;6.70;65.80;;;;;;5036807;28;20049;-56
2022/01/07 09:06:14;;;;;;;110.30;52.28;;;7.40;66.80;;;;;;5053668;28;20056;-60
2022/01/07 09:08:40;;;;;;;69.10;36.40;;;7.80;62.10;;;;;;5053656;28;20024;-57
2022/01/07 09:11:06;;;;;;;68.35;35.03;;;7.60;63.30;;;;;;5052866;28;20501;-56
2022/01/07 09:13:31;;;;;;;91.88;46.45;;;7.50;63.10;;;;;;5044496;28;20095;-53
2022/01/07 09:15:58;;;;;;;82.10;42.10;;;7.30;61.60;;;;;;5036459;28;20495;-52
2022/01/07 09:18:25;;;;;;;119.07;57.38;;;7.20;61.30;;;;;;5048346;28;20037;-54
2022/01/07 09:20:52;;;;;;;82.07;42.17;;;7.00;60.10;;;;;;5033674;28;20056;-54
2022/01/07 09:23:17;;;;;;;65.07;36.38;;;6.60;60.50;;;;;;5038548;28;20361;-59
2022/01/07 09:25:43;;;;;;;63.72;36.42;;;6.40;61.30;;;;;;5037420;28;20037;-58
2022/01/07 09:28:09;;;;;;;59.08;33.22;;;6.60;65.40;;;;;;5034440;28;20021;-54
2022/01/07 09:30:36;;;;;;;53.53;30.52;;;7.00;65.40;;;;;;5034309;28;20088;-62
2022/01/07 09:33:02;;;;;;;65.03;33.80;;;7.60;64.00;;;;;;5040860;28;20029;-60
2022/01/07 09:35:28;;;;;;;54.40;30.80;;;7.80;57.70;;;;;;5043503;28;20090;-55
2022/01/07 09:37:54;;;;;;;50.50;28.13;;;7.80;59.60;;;;;;5033605;28;20382;-54
2022/01/07 09:40:21;;;;;;;47.00;27.58;;;8.10;59.60;;;;;;5037546;28;20075;-51
2022/01/07 09:42:59;;;;;;;50.20;29.35;;;8.50;59.90;;;;;;5049071;28;20048;-56
2022/01/07 09:45:26;;;;;;;50.83;29.30;;;8.80;56.50;;;;;;5034139;28;20499;-62
2022/01/07 09:47:54;;;;;;;45.17;26.63;;;9.10;59.10;;;;;;5044975;28;20385;-57
2022/01/07 09:50:21;;;;;;;50.35;29.25;;;9.40;55.80;;;;;;5053424;28;20041;-50
2022/01/07 09:52:46;;;;;;;51.53;28.55;;;9.60;54.30;;;;;;5032109;28;20037;-58
2022/01/07 09:55:13;;;;;;;46.30;25.38;;;9.60;56.30;;;;;;5051011;28;20052;-67
2022/01/07 09:57:38;;;;;;;47.38;25.60;;;9.80;53.70;;;;;;5052268;28;20036;-58
2022/01/07 10:00:06;;;;;;;45.45;27.05;;;9.70;52.20;;;;;;5053441;28;20025;-46
2022/01/07 10:02:32;;;;;;;51.20;26.42;;;9.40;53.10;;;;;;5054280;28;20052;-54
2022/01/07 10:05:16;;;;;;;46.40;25.83;;;9.60;52.20;;;;;;5053067;28;20045;-59
2022/01/07 10:07:43;;;;;;;50.17;26.45;;;9.60;52.00;;;;;;5053204;28;20055;-53
2022/01/07 10:10:14;;;;;;;46.55;20.95;;;9.60;50.50;;;;;;5052435;28;20033;-51
2022/01/07 10:13:03;;;;;;;35.65;20.65;;;9.60;50.50;;;;;;5053868;28;20467;-57
2022/01/07 10:15:35;;;;;;;70.38;35.47;;;9.30;49.90;;;;;;5053224;28;20075;-59
2022/01/07 10:18:16;;;;;;;54.50;26.45;;;9.20;48.80;;;;;;5051708;28;20104;-60
2022/01/07 10:20:44;;;;;;;46.33;26.05;;;9.00;50.50;;;;;;5041550;28;20099;-56
2022/01/07 10:23:17;;;;;;;42.00;21.73;;;9.50;51.40;;;;;;5051050;28;20021;-57
2022/01/07 10:25:45;;;;;;;31.63;18.73;;;9.70;50.50;;;;;;5037271;28;20033;-56
2022/01/07 10:28:13;;;;;;;59.15;29.45;;;10.00;51.70;;;;;;5044824;28;20040;-52
2022/01/07 10:30:45;;;;;;;38.42;21.98;;;10.30;48.30;;;;;;5032528;28;20037;-54
2022/01/07 10:33:29;;;;;;;45.08;24.08;;;10.40;52.30;;;;;;5044785;28;20324;-53
2022/01/07 10:36:16;;;;;;;37.42;20.73;;;10.60;48.30;;;;;;5051282;28;20025;-58
2022/01/07 10:39:02;;;;;;;37.45;17.40;;;10.80;49.60;;;;;;5050572;28;20631;-56
2022/01/07 10:41:28;;;;;;;29.80;15.65;;;11.10;44.40;;;;;;5049512;28;20124;-54
2022/01/07 10:44:02;;;;;;;27.85;14.55;;;11.00;48.00;;;;;;5052336;28;20017;-53
2022/01/07 10:46:31;;;;;;;32.30;16.83;;;11.20;46.90;;;;;;5046067;28;20037;-61
2022/01/07 10:49:02;;;;;;;40.65;19.67;;;11.20;45.60;;;;;;5043137;28;20040;-58
2022/01/07 10:51:31;;;;;;;33.67;16.90;;;11.00;46.40;;;;;;5036383;28;20021;-51
2022/01/07 10:54:10;;;;;;;41.75;19.52;;;10.80;47.20;;;;;;5045498;28;20020;-48
2022/01/07 10:56:44;;;;;;;41.75;23.08;;;10.90;45.10;;;;;;5040743;28;20402;-60
2022/01/07 10:59:12;;;;;;;34.13;17.92;;;10.70;47.00;;;;;;5044841;28;20037;-50
2022/01/07 11:01:47;;;;;;;45.53;21.90;;;10.80;47.60;;;;;;5049387;28;20025;-55
2022/01/07 11:04:19;;;;;;;34.50;17.52;;;11.00;46.60;;;;;;5050262;28;20393;-55
2022/01/07 11:06:46;;;;;;;34.15;16.98;;;11.10;46.80;;;;;;5044917;28;20041;-56
2022/01/07 11:09:15;;;;;;;29.30;13.77;;;11.10;45.30;;;;;;5032154;28;20022;-53
2022/01/07 11:11:54;;;;;;;25.08;14.93;;;11.20;46.00;;;;;;5032274;28;20030;-60
2022/01/07 11:14:23;;;;;;;23.52;14.13;;;11.20;46.10;;;;;;5035267;28;20026;-49
2022/01/07 11:16:49;;;;;;;30.48;15.77;;;11.70;45.00;;;;;;5049694;28;20127;-59
2022/01/07 11:19:28;;;;;;;21.00;12.57;;;12.00;43.70;;;;;;5051690;28;20094;-55
2022/01/07 11:21:56;;;;;;;20.83;11.50;;;11.60;43.70;;;;;;5047607;28;20029;-60
2022/01/07 11:24:33;;;;;;;18.95;11.45;;;11.20;46.10;;;;;;5032488;28;20100;-57
2022/01/07 11:27:01;;;;;;;19.13;10.38;;;11.40;47.70;;;;;;5048267;28;20029;-59
2022/01/07 11:29:28;;;;;;;16.23;9.77;;;12.00;46.40;;;;;;5043531;28;20029;-58
2022/01/07 11:31:54;;;;;;;15.73;9.63;;;12.20;43.60;;;;;;5051128;28;20355;-50
2022/01/07 11:34:19;;;;;;;16.95;8.90;;;12.10;43.00;;;;;;5040426;28;20060;-57
2022/01/07 11:36:46;;;;;;;19.52;9.52;;;12.00;43.00;;;;;;5052446;28;20021;-51
2022/01/07 11:39:11;;;;;;;21.02;11.98;;;11.90;46.30;;;;;;5038867;28;20116;-60
2022/01/07 11:41:47;;;;;;;16.92;10.32;;;12.10;44.50;;;;;;5039385;28;20109;-54
2022/01/07 11:44:25;;;;;;;17.63;10.90;;;12.00;43.30;;;;;;5033299;28;20461;-51
2022/01/07 11:46:51;;;;;;;13.93;8.55;;;12.00;45.80;;;;;;5041726;28;20064;-54
2022/01/07 11:49:33;;;;;;;14.90;8.80;;;12.40;43.00;;;;;;5040365;28;20523;-61
2022/01/07 11:52:29;;;;;;;22.70;12.98;;;12.60;43.10;;;;;;5037501;28;20167;-55
2022/01/07 11:55:29;;;;;;;25.13;15.02;;;12.50;41.00;;;;;;5029653;28;20503;-53
2022/01/07 11:58:06;;;;;;;24.27;14.23;;;12.30;42.30;;;;;;5028731;28;20033;-60
2022/01/07 12:01:03;;;;;;;19.00;11.77;;;12.20;41.70;;;;;;5032918;28;20503;-58
2022/01/07 12:03:35;;;;;;;19.48;11.20;;;12.50;42.80;;;;;;5041142;28;20025;-59
2022/01/07 12:06:20;;;;;;;23.38;13.20;;;12.70;41.20;;;;;;5037968;28;20021;-55
2022/01/07 12:09:09;;;;;;;22.20;13.00;;;12.70;42.70;;;;;;5039963;28;20091;-57
2022/01/07 12:11:37;;;;;;;19.88;11.45;;;12.90;42.50;;;;;;5040703;28;20410;-57
2022/01/07 12:14:10;;;;;;;20.20;12.70;;;13.00;42.20;;;;;;5034067;28;20056;-49
2022/01/07 12:16:37;;;;;;;30.15;16.80;;;13.10;42.00;;;;;;5040338;28;20438;-52
2022/01/07 12:19:21;;;;;;;34.53;19.17;;;13.40;43.00;;;;;;5045041;28;20022;-52
2022/01/07 12:21:52;;;;;;;41.15;22.92;;;13.60;40.20;;;;;;5043440;28;20032;-58
2022/01/07 12:24:22;;;;;;;19.52;12.10;;;13.30;38.40;;;;;;5041908;28;20108;-59
2022/01/07 12:27:19;;;;;;;41.40;22.73;;;12.80;41.00;;;;;;5038568;28;20159;-50
2022/01/07 12:29:48;;;;;;;41.42;24.30;;;12.60;40.50;;;;;;5041123;28;20044;-52
2022/01/07 12:32:18;;;;;;;37.88;23.15;;;12.50;42.40;;;;;;5044360;28;20026;-56
2022/01/07 12:34:49;;;;;;;31.85;20.48;;;12.60;44.50;;;;;;5035939;28;20095;-56
2022/01/07 12:37:21;;;;;;;28.40;17.10;;;12.60;42.80;;;;;;5035977;28;20036;-52
2022/01/07 12:39:51;;;;;;;23.05;12.48;;;12.30;43.20;;;;;;5035178;28;20049;-53
2022/01/07 12:42:18;;;;;;;19.95;9.93;;;12.20;43.90;;;;;;5039704;28;20063;-57
2022/01/07 12:44:46;;;;;;;26.48;15.35;;;11.90;43.70;;;;;;5043343;28;20472;-58
2022/01/07 12:47:16;;;;;;;25.20;14.73;;;11.50;44.30;;;;;;5050655;28;20394;-53
2022/01/07 12:49:46;;;;;;;19.15;10.40;;;11.10;44.10;;;;;;5052531;28;20029;-55
2022/01/07 12:52:20;;;;;;;21.95;12.68;;;10.90;43.70;;;;;;5054557;28;20502;-53
2022/01/07 12:54:59;;;;;;;20.05;12.18;;;10.90;43.90;;;;;;5054618;28;20032;-57
2022/01/07 12:57:46;;;;;;;17.27;10.20;;;10.90;44.50;;;;;;5053932;28;20095;-54
2022/01/07 13:00:31;;;;;;;12.30;8.65;;;10.70;44.60;;;;;;5055197;28;20029;-55
2022/01/07 13:03:02;;;;;;;21.60;12.15;;;10.70;43.70;;;;;;5055323;28;20017;-48
2022/01/07 13:05:29;;;;;;;18.40;11.05;;;10.50;43.80;;;;;;5054437;28;20049;-52
2022/01/07 13:08:10;;;;;;;15.23;9.40;;;10.30;44.10;;;;;;5053525;28;20076;-59
2022/01/07 13:10:38;;;;;;;148.60;83.85;;;10.30;45.40;;;;;;5054409;28;20021;-56
2022/01/07 13:13:07;;;;;;;118.35;67.75;;;10.00;48.20;;;;;;5054248;28;20021;-58
2022/01/07 13:15:51;;;;;;;261.50;163.43;;;9.60;49.20;;;;;;5054397;28;20071;-56
2022/01/07 13:18:31;;;;;;;194.90;125.72;;;9.10;51.60;;;;;;5054655;28;20029;-48
2022/01/07 13:21:06;;;;;;;140.48;98.45;;;8.60;52.10;;;;;;5055237;28;20033;-57
2022/01/07 13:23:49;;;;;;;122.53;74.20;;;8.50;53.10;;;;;;5053831;28;20426;-60
2022/01/07 13:26:16;;;;;;;109.70;56.22;;;8.80;52.30;;;;;;5054706;28;20031;-58
2022/01/07 13:28:44;;;;;;;73.00;43.75;;;8.80;52.30;;;;;;5055264;28;20083;-48
2022/01/07 13:31:11;;;;;;;92.20;46.40;;;8.60;52.30;;;;;;5054822;28;20052;-53
2022/01/07 13:33:39;;;;;;;124.13;62.13;;;8.60;52.70;;;;;;5055001;28;20024;-57
2022/01/07 13:36:11;;;;;;;154.35;73.28;;;8.70;53.40;;;;;;5054847;28;20100;-54
2022/01/07 13:38:38;;;;;;;194.98;92.55;;;8.50;53.80;;;;;;5054649;28;20029;-54
2022/01/07 13:41:09;;;;;;;157.60;75.20;;;8.10;55.40;;;;;;5054513;28;20025;-48
2022/01/07 13:43:41;;;;;;;212.77;101.03;;;8.00;55.70;;;;;;5054940;28;20048;-58
2022/01/07 13:46:11;;;;;;;207.43;97.38;;;7.90;56.20;;;;;;5054767;28;20368;-62
2022/01/07 13:49:01;;;;;;;124.70;58.65;;;7.80;58.00;;;;;;5054778;28;20025;-58
2022/01/07 13:51:29;;;;;;;150.57;69.65;;;8.00;55.40;;;;;;5054415;28;20021;-53
2022/01/07 13:54:16;;;;;;;151.75;69.85;;;8.40;56.00;;;;;;5054387;28;20017;-51
2022/01/07 13:56:56;;;;;;;146.55;69.75;;;8.60;55.10;;;;;;5054336;28;20029;-47
2022/01/07 13:59:22;;;;;;;111.00;56.50;;;8.70;55.50;;;;;;5054284;28;20071;-57
2022/01/07 14:01:53;;;;;;;86.53;47.28;;;9.00;53.50;;;;;;5054491;28;20079;-56
2022/01/07 14:04:21;;;;;;;93.28;53.42;;;9.30;53.40;;;;;;5054465;28;20466;-57
2022/01/07 14:06:47;;;;;;;105.85;55.50;;;9.20;53.50;;;;;;5054232;28;20033;-58
2022/01/07 14:09:17;;;;;;;77.78;46.20;;;9.10;53.70;;;;;;5054034;28;20039;-47
2022/01/07 14:12:01;;;;;;;103.45;57.42;;;9.20;53.80;;;;;;5053865;28;20490;-57
2022/01/07 14:14:35;;;;;;;85.95;48.38;;;9.50;52.40;;;;;;5053901;28;20021;-54
2022/01/07 14:17:10;;;;;;;149.18;79.18;;;9.60;51.50;;;;;;5053810;28;20048;-52
2022/01/07 14:19:56;;;;;;;148.18;76.10;;;9.60;51.90;;;;;;5053858;28;20095;-53
2022/01/07 14:22:22;;;;;;;123.47;69.07;;;9.60;51.40;;;;;;5053861;28;20025;-54
2022/01/07 14:24:48;;;;;;;105.07;58.70;;;9.70;51.30;;;;;;5053289;28;20045;-55
2022/01/07 14:27:34;;;;;;;97.78;54.63;;;9.70;51.00;;;;;;5053469;28;20063;-52
2022/01/07 14:30:07;;;;;;;93.53;54.03;;;9.60;51.70;;;;;;5053800;28;20021;-55
2022/01/07 14:32:33;;;;;;;116.65;61.03;;;9.50;52.20;;;;;;5053838;28;20048;-55
2022/01/07 14:35:00;;;;;;;167.60;81.90;;;9.00;53.80;;;;;;5053749;28;20052;-55
2022/01/07 14:37:28;;;;;;;207.20;102.38;;;8.60;56.00;;;;;;5053609;28;20021;-53
2022/01/07 14:39:55;;;;;;;194.55;98.53;;;8.00;58.50;;;;;;5053521;28;20356;-56
2022/01/07 14:42:22;;;;;;;196.85;97.43;;;7.60;59.70;;;;;;5053625;28;20096;-53
2022/01/07 14:44:48;;;;;;;178.13;91.90;;;7.30;62.40;;;;;;5053460;28;20024;-59
2022/01/07 14:47:14;;;;;;;184.80;91.22;;;7.10;65.40;;;;;;5053398;28;20487;-51
2022/01/07 14:49:40;;;;;;;184.57;93.30;;;6.90;68.40;;;;;;5053413;28;20072;-54
2022/01/07 14:52:07;;;;;;;236.35;114.43;;;6.90;68.70;;;;;;5053743;28;20044;-54
2022/01/07 14:54:33;;;;;;;296.75;139.25;;;6.90;68.90;;;;;;5053430;28;20243;-60
2022/01/07 14:56:59;;;;;;;233.38;117.30;;;6.90;69.90;;;;;;5053371;28;20063;-55
2022/01/07 14:59:24;;;;;;;230.35;113.57;;;6.90;69.30;;;;;;5053365;28;20053;-52
2022/01/07 15:01:50;;;;;;;207.73;99.85;;;6.90;69.10;;;;;;5053525;28;20021;-52
2022/01/07 15:04:16;;;;;;;192.35;97.00;;;7.00;66.80;;;;;;5053218;28;20053;-59
2022/01/07 15:06:42;;;;;;;165.70;84.72;;;7.20;64.30;;;;;;5053146;28;20025;-54
2022/01/07 15:09:08;;;;;;;169.40;85.53;;;7.40;64.00;;;;;;5053183;28;20099;-52
2022/01/07 15:11:34;;;;;;;100.60;48.65;;;7.60;60.70;;;;;;5053200;28;20028;-49
2022/01/07 15:13:59;;;;;;;94.95;50.15;;;7.70;60.10;;;;;;5053493;28;20100;-55
2022/01/07 15:19:09;;;;;;;53.05;28.75;;;7.90;58.10;;;;;;5053243;28;20036;-51
2022/01/07 15:21:36;;;;;;;38.75;20.98;;;8.00;57.30;;;;;;5053063;28;20025;-57
2022/01/07 15:24:10;;;;;;;30.20;18.50;;;7.90;56.90;;;;;;5052933;28;20028;-47
2022/01/07 15:26:36;;;;;;;28.40;15.90;;;7.90;57.10;;;;;;5053034;28;20097;-52
2022/01/07 15:29:04;;;;;;;28.25;15.52;;;8.00;56.20;;;;;;5052939;28;20035;-49
2022/01/07 15:31:30;;;;;;;35.22;16.55;;;8.00;56.60;;;;;;5053179;28;20020;-59
2022/01/07 15:33:57;;;;;;;31.88;15.27;;;8.00;56.40;;;;;;5053054;28;20025;-55
2022/01/07 15:36:28;;;;;;;49.15;24.73;;;8.10;57.00;;;;;;5052819;28;20040;-61
2022/01/07 15:38:55;;;;;;;43.53;20.95;;;8.00;55.80;;;;;;5056178;28;20036;-53
2022/01/07 15:41:21;;;;;;;33.65;17.60;;;7.80;57.60;;;;;;5056984;28;20067;-49
2022/01/07 15:43:47;;;;;;;41.78;19.80;;;7.80;57.40;;;;;;5056735;28;20035;-51
2022/01/07 15:46:13;;;;;;;35.08;18.88;;;7.80;57.50;;;;;;5056729;28;20029;-55
2022/01/07 15:48:39;;;;;;;41.70;22.35;;;7.90;57.70;;;;;;5056749;28;20026;-49
2022/01/07 15:51:04;;;;;;;38.05;21.15;;;7.90;57.10;;;;;;5056784;28;20021;-47
2022/01/07 15:53:30;;;;;;;28.92;16.45;;;7.70;56.60;;;;;;5056657;28;20092;-48
2022/01/07 15:55:57;;;;;;;22.15;14.25;;;7.70;56.80;;;;;;5056709;28;20399;-53
2022/01/07 15:58:26;;;;;;;23.17;13.82;;;7.60;57.10;;;;;;5056879;28;20029;-45
2022/01/07 16:00:53;;;;;;;19.70;11.77;;;7.60;57.90;;;;;;5056735;28;20032;-43
2022/01/07 16:03:19;;;;;;;16.63;10.85;;;7.70;57.60;;;;;;5056888;28;20025;-47
2022/01/07 16:05:44;;;;;;;16.85;11.13;;;7.80;57.10;;;;;;5056710;28;20025;-60
2022/01/07 16:08:10;;;;;;;16.00;9.48;;;7.90;56.60;;;;;;5056261;28;20025;-47
2022/01/07 16:10:37;;;;;;;19.98;10.52;;;7.80;56.60;;;;;;5056458;28;20096;-51
2022/01/07 16:13:03;;;;;;;23.73;11.70;;;7.70;57.50;;;;;;5056381;28;20074;-54
2022/01/07 16:15:29;;;;;;;15.98;10.43;;;7.60;58.50;;;;;;5056065;28;20480;-56
2022/01/07 16:17:54;;;;;;;19.60;10.57;;;7.60;58.20;;;;;;5056480;28;20021;-55
2022/01/07 16:20:20;;;;;;;19.08;10.88;;;7.70;58.40;;;;;;5056481;28;20421;-60
2022/01/07 16:22:46;;;;;;;18.58;10.25;;;7.70;57.10;;;;;;5056107;28;20013;-59
2022/01/07 16:25:13;;;;;;;22.20;11.30;;;7.70;58.10;;;;;;5054928;28;20025;-55
2022/01/07 16:27:39;;;;;;;17.63;10.32;;;7.70;58.20;;;;;;5056071;28;20025;-51
2022/01/07 16:30:08;;;;;;;22.55;11.93;;;7.70;57.30;;;;;;5056249;28;20112;-50
2022/01/07 16:32:34;;;;;;;20.23;11.00;;;7.70;56.30;;;;;;5056391;28;20027;-54
2022/01/07 16:34:59;;;;;;;23.52;12.80;;;7.60;56.60;;;;;;5055741;28;20021;-61
2022/01/07 16:37:25;;;;;;;19.85;12.15;;;7.70;56.10;;;;;;5055783;28;20029;-53
2022/01/07 16:39:52;;;;;;;25.70;12.48;;;7.50;56.80;;;;;;5056466;28;20021;-58
2022/01/07 16:42:19;;;;;;;22.58;12.52;;;7.40;57.20;;;;;;5055920;28;20056;-47
2022/01/07 16:44:45;;;;;;;29.38;15.73;;;7.30;58.00;;;;;;5056014;28;20025;-55
2022/01/07 16:47:10;;;;;;;29.77;16.02;;;7.10;57.10;;;;;;5056039;28;20471;-56
2022/01/07 16:49:38;;;;;;;37.08;20.33;;;7.00;56.80;;;;;;5055227;28;20048;-46
2022/01/07 16:52:07;;;;;;;40.38;20.42;;;6.90;56.90;;;;;;5055627;28;20025;-58
2022/01/07 16:54:35;;;;;;;36.45;18.35;;;6.80;57.90;;;;;;5055541;28;20078;-54
2022/01/07 16:57:02;;;;;;;30.08;17.27;;;6.80;58.80;;;;;;5055582;28;20401;-56
2022/01/07 16:59:28;;;;;;;33.85;16.92;;;6.90;58.50;;;;;;5055392;28;20029;-51
2022/01/07 17:01:54;;;;;;;27.88;15.70;;;6.90;58.00;;;;;;5055768;28;20018;-51
2022/01/07 17:04:20;;;;;;;24.63;14.32;;;7.00;57.70;;;;;;5055527;28;20048;-54
2022/01/07 17:06:46;;;;;;;22.13;12.95;;;7.10;56.30;;;;;;5055341;28;20382;-55
2022/01/07 17:09:11;;;;;;;23.48;11.77;;;7.10;56.30;;;;;;5055244;28;20483;-58
2022/01/07 17:11:37;;;;;;;18.92;11.32;;;7.20;55.60;;;;;;5055209;28;20432;-55
2022/01/07 17:14:04;;;;;;;17.65;10.00;;;7.20;55.30;;;;;;5055254;28;20032;-48
2022/01/07 17:16:31;;;;;;;21.27;10.70;;;7.20;54.20;;;;;;5054914;28;20398;-57
2022/01/07 17:18:57;;;;;;;17.30;9.50;;;7.20;54.30;;;;;;5054915;28;20027;-49
2022/01/07 17:21:24;;;;;;;20.13;9.93;;;7.20;54.60;;;;;;5055105;28;20021;-55
2022/01/07 17:23:51;;;;;;;16.02;8.98;;;7.20;54.10;;;;;;5054975;28;20028;-54
2022/01/07 17:26:17;;;;;;;16.95;8.60;;;7.10;54.50;;;;;;5054873;28;20024;-47
2022/01/07 17:28:42;;;;;;;18.23;9.45;;;7.10;54.60;;;;;;5054968;28;20582;-57
2022/01/07 17:31:09;;;;;;;20.65;9.55;;;7.10;54.20;;;;;;5054855;28;20096;-57
2022/01/07 17:33:35;;;;;;;15.35;8.10;;;7.10;54.20;;;;;;5054785;28;20017;-55
2022/01/07 17:36:02;;;;;;;18.25;7.85;;;7.10;54.20;;;;;;5054881;28;20433;-50
2022/01/07 17:38:28;;;;;;;12.43;7.28;;;7.00;53.60;;;;;;5054698;28;20021;-62
2022/01/07 17:40:54;;;;;;;17.45;8.40;;;6.90;53.70;;;;;;5054831;28;20497;-49
2022/01/07 17:43:22;;;;;;;17.60;8.38;;;6.90;53.30;;;;;;5054677;28;20029;-50
2022/01/07 17:45:49;;;;;;;16.33;7.97;;;6.80;53.50;;;;;;5054451;28;20029;-52
2022/01/07 17:48:14;;;;;;;13.25;7.50;;;6.60;53.40;;;;;;5054353;28;20115;-48
2022/01/07 17:50:40;;;;;;;13.52;7.80;;;6.60;54.30;;;;;;5054573;28;20060;-53
2022/01/07 17:53:06;;;;;;;16.70;8.93;;;6.70;53.90;;;;;;5054361;28;20017;-53
2022/01/07 17:55:31;;;;;;;32.13;15.27;;;6.70;53.70;;;;;;5054285;28;20029;-51
2022/01/07 17:57:57;;;;;;;29.08;13.13;;;6.80;54.30;;;;;;5054676;28;20021;-50
2022/01/07 18:00:23;;;;;;;29.15;14.38;;;6.70;54.30;;;;;;5053475;28;20029;-58
2022/01/07 18:02:49;;;;;;;28.45;13.18;;;6.70;53.70;;;;;;5054267;28;20049;-60
2022/01/07 18:05:15;;;;;;;19.38;10.95;;;6.60;53.60;;;;;;5054286;28;20025;-55
2022/01/07 18:07:40;;;;;;;22.02;11.60;;;6.60;54.20;;;;;;5054148;28;20078;-49
2022/01/07 18:10:07;;;;;;;30.50;14.88;;;6.60;53.90;;;;;;5054005;28;20032;-55
2022/01/07 18:12:34;;;;;;;25.00;12.57;;;6.50;54.20;;;;;;5054104;28;20426;-48
2022/01/07 18:15:00;;;;;;;32.70;17.38;;;6.50;54.30;;;;;;5054046;28;20025;-60
2022/01/07 18:17:27;;;;;;;42.28;21.55;;;6.50;53.80;;;;;;5053545;28;20040;-53
2022/01/07 18:19:52;;;;;;;57.40;26.40;;;6.50;54.30;;;;;;5054075;28;20119;-52
2022/01/07 18:22:18;;;;;;;57.67;26.80;;;6.50;54.70;;;;;;5053997;28;20100;-49
2022/01/07 18:24:44;;;;;;;68.10;31.65;;;6.40;54.60;;;;;;5053805;28;20021;-55
2022/01/07 18:27:10;;;;;;;67.18;30.73;;;6.50;54.90;;;;;;5054160;28;20025;-51
2022/01/07 18:29:36;;;;;;;53.10;25.65;;;6.40;55.20;;;;;;5053853;28;20477;-49
2022/01/07 18:32:02;;;;;;;97.10;41.50;;;6.30;54.70;;;;;;5053550;28;20017;-51
2022/01/07 18:34:28;;;;;;;81.45;38.00;;;6.30;55.30;;;;;;5053648;28;20525;-54
2022/01/07 18:36:55;;;;;;;66.75;32.53;;;6.30;55.60;;;;;;5053693;28;20479;-48
2022/01/07 18:39:21;;;;;;;61.97;30.95;;;6.30;55.50;;;;;;5053965;28;20016;-52
2022/01/07 18:41:47;;;;;;;72.45;34.42;;;6.30;55.20;;;;;;5053767;28;20017;-58
2022/01/07 18:44:13;;;;;;;64.18;33.88;;;6.40;55.20;;;;;;5053803;28;20028;-62
2022/01/07 18:46:38;;;;;;;72.57;35.53;;;6.40;53.90;;;;;;5053256;28;20467;-48
2022/01/07 18:49:05;;;;;;;72.75;35.67;;;6.30;55.10;;;;;;5053334;28;20029;-58
2022/01/07 18:51:31;;;;;;;62.40;32.42;;;6.20;55.50;;;;;;5053430;28;20029;-58
2022/01/07 18:53:57;;;;;;;53.50;28.65;;;6.20;55.30;;;;;;5053282;28;20056;-50
2022/01/07 18:56:23;;;;;;;86.57;43.03;;;6.20;56.30;;;;;;5053218;28;20059;-49
2022/01/07 18:58:49;;;;;;;182.10;88.95;;;6.30;55.80;;;;;;5053323;28;20108;-50
2022/01/07 19:01:15;;;;;;;143.60;71.15;;;6.20;56.20;;;;;;5053045;28;20044;-45
2022/01/07 19:03:41;;;;;;;169.05;80.93;;;6.10;56.20;;;;;;5053421;28;20360;-55
2022/01/07 19:06:09;;;;;;;99.80;47.20;;;6.00;57.20;;;;;;5053439;28;20032;-56
2022/01/07 19:08:35;;;;;;;107.60;53.33;;;5.80;56.80;;;;;;5053489;28;20037;-55
2022/01/07 19:11:01;;;;;;;150.27;68.82;;;5.70;57.90;;;;;;5053273;28;20029;-58
2022/01/07 19:13:27;;;;;;;188.57;85.38;;;5.70;58.10;;;;;;5052212;28;20387;-61
2022/01/07 19:15:53;;;;;;;171.43;76.97;;;5.60;58.10;;;;;;5052766;28;20053;-59
2022/01/07 19:18:22;;;;;;;108.53;53.95;;;5.50;58.90;;;;;;5053090;28;20047;-53
2022/01/07 19:20:51;;;;;;;99.53;51.22;;;5.40;58.80;;;;;;5053080;28;20083;-58
2022/01/07 19:23:18;;;;;;;92.18;44.80;;;5.40;59.80;;;;;;5053322;28;20086;-54
2022/01/07 19:25:44;;;;;;;92.63;45.83;;;5.40;59.00;;;;;;5052908;28;20021;-46
2022/01/07 19:28:10;;;;;;;90.20;45.10;;;5.50;60.10;;;;;;5053179;28;20420;-54
2022/01/07 19:30:36;;;;;;;100.45;50.95;;;5.50;59.30;;;;;;5052780;28;20021;-51
2022/01/07 19:33:02;;;;;;;91.75;47.80;;;5.40;60.10;;;;;;5053000;28;20502;-49
2022/01/07 19:35:30;;;;;;;80.22;42.15;;;5.40;61.30;;;;;;5053163;28;20017;-54
2022/01/07 19:37:57;;;;;;;81.25;46.08;;;5.40;60.50;;;;;;5053246;28;20052;-52
2022/01/07 19:40:23;;;;;;;112.95;55.67;;;5.40;62.00;;;;;;5053202;28;20021;-56
2022/01/07 19:42:49;;;;;;;94.82;46.95;;;5.40;63.10;;;;;;5052867;28;20028;-52
2022/01/07 19:45:15;;;;;;;94.65;46.90;;;5.40;61.70;;;;;;5052661;28;20021;-59
2022/01/07 19:47:41;;;;;;;105.13;48.50;;;5.40;62.90;;;;;;5052737;28;20029;-49
2022/01/07 19:50:07;;;;;;;107.88;47.97;;;5.40;62.60;;;;;;5052734;28;20040;-54
2022/01/07 19:52:34;;;;;;;110.22;50.88;;;5.40;62.30;;;;;;5052853;28;20100;-62
2022/01/07 19:55:00;;;;;;;96.38;45.33;;;5.50;61.40;;;;;;5052740;28;20036;-53
2022/01/07 19:57:26;;;;;;;84.97;42.63;;;5.60;61.60;;;;;;5052737;28;20036;-62
2022/01/07 19:59:52;;;;;;;99.22;47.75;;;5.70;62.40;;;;;;5052486;28;20407;-52
2022/01/07 20:02:18;;;;;;;154.52;76.15;;;5.80;61.80;;;;;;5052659;28;20100;-57
2022/01/07 20:04:43;;;;;;;122.70;61.10;;;5.70;63.70;;;;;;5052857;28;20013;-48
2022/01/07 20:07:09;;;;;;;266.23;92.22;;;5.60;63.30;;;;;;5052618;28;20029;-46
2022/01/07 20:09:37;;;;;;;201.73;77.43;;;5.60;64.10;;;;;;5052618;28;20100;-53
2022/01/07 20:12:03;;;;;;;212.90;77.53;;;5.60;63.50;;;;;;5052490;28;20068;-57